Time;durP1;ratioP1;P1;durP2;ratioP2;P2;SDS_P1;SDS_P2;PMS_P1;PMS_P2;Temp;Humidity;BMP_temperature;BMP_pressure;BME280_temperature;BME280_humidity;BME280_pressure;Samples;Min_cycle;Max_cycle;Signal;HPM_P1;HPM_P2
2022/12/02 00:00:32;;;;;;;8.53;6.23;;;3.20;99.90;4.40;97080.00;;;;5108193;28;20591;-66
2022/12/02 00:03:25;;;;;;;9.00;7.30;;;3.20;99.90;4.40;97075.00;;;;5093132;28;20195;-67
2022/12/02 00:06:18;;;;;;;10.47;6.87;;;3.20;99.90;4.40;97070.00;;;;5100676;28;20202;-66
2022/12/02 00:09:22;;;;;;;10.10;6.87;;;3.20;99.90;4.40;97077.00;;;;5112260;28;20195;-66
2022/12/02 00:12:18;;;;;;;8.50;5.23;;;3.20;99.90;4.30;97080.00;;;;5112640;28;20210;-67
2022/12/02 00:15:41;;;;;;;10.07;6.57;;;3.20;99.90;4.40;97083.00;;;;5112604;28;20202;-66
2022/12/02 00:18:31;;;;;;;10.80;5.87;;;3.10;99.90;4.50;97085.00;;;;5103765;28;20206;-67
2022/12/02 00:21:21;;;;;;;9.83;7.13;;;3.10;99.90;4.40;97083.00;;;;5098632;28;20488;-66
2022/12/02 00:24:10;;;;;;;10.80;7.60;;;3.20;99.90;4.50;97086.00;;;;5091979;28;20821;-67
2022/12/02 00:26:58;;;;;;;15.20;10.13;;;3.20;99.90;4.60;97088.00;;;;5107422;28;20984;-67
2022/12/02 00:29:47;;;;;;;13.27;8.93;;;3.20;99.90;4.60;97084.00;;;;5109355;28;20199;-67
2022/12/02 00:32:36;;;;;;;8.50;7.53;;;3.20;99.90;4.60;97086.00;;;;5105502;28;20198;-67
2022/12/02 00:35:26;;;;;;;9.10;6.63;;;3.20;99.90;4.50;97082.00;;;;5110460;28;20206;-67
2022/12/02 00:38:15;;;;;;;11.90;8.17;;;3.20;99.90;4.50;97078.00;;;;5111037;28;20260;-66
2022/12/02 00:41:03;;;;;;;9.37;6.47;;;3.20;99.90;4.50;97081.00;;;;5097904;28;20231;-67
2022/12/02 00:47:07;;;;;;;12.10;7.37;;;3.20;99.90;4.60;97080.00;;;;5065487;28;20210;-67
2022/12/02 00:49:56;;;;;;;36.83;20.83;;;3.20;99.90;4.50;97080.00;;;;5099964;28;20195;-67
2022/12/02 00:52:46;;;;;;;31.90;16.40;;;3.20;99.90;4.60;97074.00;;;;5094209;28;20615;-67
2022/12/02 00:55:34;;;;;;;25.67;14.63;;;3.30;99.90;4.60;97081.00;;;;5106250;28;20198;-67
2022/12/02 00:58:23;;;;;;;22.10;12.70;;;3.30;99.90;4.60;97081.00;;;;5092390;28;20680;-67
2022/12/02 01:01:12;;;;;;;25.30;12.60;;;3.30;99.90;4.40;97076.00;;;;5090732;28;20445;-66
2022/12/02 01:04:01;;;;;;;13.03;8.80;;;3.30;99.90;4.30;97083.00;;;;5091992;28;20804;-67
2022/12/02 01:06:50;;;;;;;10.57;7.53;;;3.30;99.90;4.20;97080.00;;;;5092147;28;20205;-67
2022/12/02 01:09:40;;;;;;;8.57;6.83;;;3.30;99.90;4.30;97087.00;;;;5091292;28;20214;-67
2022/12/02 01:12:29;;;;;;;14.10;7.93;;;3.20;99.90;4.30;97085.00;;;;5098320;28;20425;-67
2022/12/02 01:15:18;;;;;;;10.50;6.40;;;3.20;99.90;4.50;97089.00;;;;5100334;28;20426;-67
2022/12/02 01:18:06;;;;;;;11.27;6.40;;;3.20;99.90;4.50;97090.00;;;;5101975;28;20232;-66
2022/12/02 01:20:55;;;;;;;10.63;7.70;;;3.20;99.90;4.60;97091.00;;;;5096624;28;20472;-66
2022/12/02 01:23:44;;;;;;;9.67;7.63;;;3.20;99.90;4.60;97096.00;;;;5091575;28;20413;-66
2022/12/02 01:26:35;;;;;;;7.87;6.90;;;3.20;99.90;4.60;97102.00;;;;5102772;28;20209;-66
2022/12/02 01:29:24;;;;;;;12.03;8.60;;;3.30;99.90;4.70;97100.00;;;;5111365;28;20428;-67
2022/12/02 01:32:12;;;;;;;8.73;7.57;;;3.30;99.90;4.60;97105.00;;;;5108098;28;20994;-66
2022/12/02 01:35:01;;;;;;;10.77;7.20;;;3.30;99.90;4.50;97098.00;;;;5107308;28;20444;-66
2022/12/02 01:37:50;;;;;;;10.83;7.93;;;3.30;99.90;4.60;97101.00;;;;5108348;28;20429;-66
2022/12/02 01:40:39;;;;;;;8.73;7.13;;;3.30;99.90;4.60;97105.00;;;;5103542;28;20447;-66
2022/12/02 01:43:29;;;;;;;12.17;8.77;;;3.30;99.90;4.70;97104.00;;;;5111202;28;20433;-66
2022/12/02 01:46:18;;;;;;;17.07;9.03;;;3.30;99.90;4.70;97098.00;;;;5111289;28;20413;-66
2022/12/02 01:49:07;;;;;;;10.93;7.57;;;3.30;99.90;4.60;97092.00;;;;5111506;28;20809;-66
2022/12/02 01:51:56;;;;;;;7.77;6.67;;;3.30;99.90;4.60;97079.00;;;;5100446;28;20226;-66
2022/12/02 01:54:45;;;;;;;12.97;6.83;;;3.30;99.90;4.60;97084.00;;;;5102823;28;20501;-67
2022/12/02 01:57:33;;;;;;;10.27;7.43;;;3.30;99.90;4.50;97084.00;;;;5092992;28;20199;-66
2022/12/02 02:00:24;;;;;;;10.77;7.37;;;3.50;99.90;4.60;97089.00;;;;5089694;28;21013;-66
2022/12/02 02:03:13;;;;;;;11.40;7.43;;;3.30;99.90;4.60;97079.00;;;;5100536;28;20424;-66
2022/12/02 02:06:01;;;;;;;9.80;7.07;;;3.30;99.90;4.50;97076.00;;;;5099897;28;20952;-66
2022/12/02 02:08:50;;;;;;;9.00;6.93;;;3.30;99.90;4.40;97078.00;;;;5106642;28;20202;-67
2022/12/02 02:11:41;;;;;;;8.43;6.83;;;3.30;99.90;4.60;97080.00;;;;5104111;28;20467;-66
2022/12/02 02:14:29;;;;;;;7.70;6.53;;;3.30;99.90;4.60;97077.00;;;;5111227;28;20435;-66
2022/12/02 02:17:20;;;;;;;7.30;6.37;;;3.30;99.90;4.60;97071.00;;;;5110625;28;20428;-66
2022/12/02 02:20:15;;;;;;;7.73;5.70;;;3.30;99.90;4.50;97083.00;;;;5110292;28;20436;-66
2022/12/02 02:23:20;;;;;;;7.33;6.47;;;3.30;99.90;4.40;97072.00;;;;5111527;28;20915;-66
2022/12/02 02:26:09;;;;;;;8.87;5.20;;;3.30;99.90;4.40;97068.00;;;;5109908;28;20240;-66
2022/12/02 02:28:58;;;;;;;7.93;5.23;;;3.30;99.90;4.40;97076.00;;;;5102806;28;20250;-67
2022/12/02 02:31:47;;;;;;;6.73;5.87;;;3.30;99.90;4.40;97068.00;;;;5095610;28;20449;-66
2022/12/02 02:34:36;;;;;;;9.17;6.47;;;3.30;99.90;4.50;97068.00;;;;5104356;28;20201;-66
2022/12/02 02:37:25;;;;;;;7.67;6.37;;;3.20;99.90;4.60;97071.00;;;;5107708;28;20417;-66
2022/12/02 02:40:17;;;;;;;11.43;8.07;;;3.30;99.90;4.60;97068.00;;;;5099554;28;20223;-66
2022/12/02 02:43:07;;;;;;;11.50;7.43;;;3.30;99.90;4.60;97073.00;;;;5108041;28;20280;-67
2022/12/02 02:45:57;;;;;;;10.27;7.57;;;3.30;99.90;4.70;97077.00;;;;5110037;28;20202;-66
2022/12/02 02:48:46;;;;;;;11.73;7.50;;;3.30;99.90;4.70;97067.00;;;;5109788;28;20612;-66
2022/12/02 02:51:35;;;;;;;8.17;5.63;;;3.30;99.90;4.60;97063.00;;;;5110070;28;20231;-66
2022/12/02 02:54:24;;;;;;;8.87;6.77;;;3.30;99.90;4.70;97066.00;;;;5110295;28;20417;-66
2022/12/02 02:57:14;;;;;;;7.67;6.60;;;5.10;99.90;4.70;97063.00;;;;5098184;28;20202;-66
2022/12/02 03:00:05;;;;;;;7.60;6.37;;;1.20;99.90;4.70;97059.00;;;;5105231;28;20417;-66
2022/12/02 03:02:55;;;;;;;10.70;6.73;;;3.40;99.90;4.70;97069.00;;;;5095582;28;20625;-66
2022/12/02 03:05:45;;;;;;;8.13;6.83;;;3.40;99.90;4.70;97055.00;;;;5104842;28;20402;-66
2022/12/02 03:08:35;;;;;;;11.03;7.30;;;3.40;99.90;4.70;97054.00;;;;5089612;28;20867;-66
2022/12/02 03:11:26;;;;;;;7.97;6.60;;;3.40;99.90;4.80;97054.00;;;;5094890;28;20608;-66
2022/12/02 03:14:17;;;;;;;12.03;6.63;;;3.40;99.90;4.70;97052.00;;;;5099058;28;20203;-67
2022/12/02 03:17:06;;;;;;;7.67;6.10;;;3.40;99.90;4.80;97042.00;;;;5089988;28;20191;-66
2022/12/02 03:19:55;;;;;;;10.10;7.03;;;3.40;99.90;4.80;97046.00;;;;5102443;28;20202;-66
2022/12/02 03:22:44;;;;;;;9.30;7.50;;;3.50;99.90;4.80;97040.00;;;;5088877;28;20747;-66
2022/12/02 03:25:34;;;;;;;10.53;8.20;;;3.40;99.90;4.70;97040.00;;;;5092674;28;20697;-66
2022/12/02 03:28:23;;;;;;;10.50;7.27;;;3.40;99.90;4.70;97045.00;;;;5104343;28;20199;-66
2022/12/02 03:31:14;;;;;;;10.43;7.53;;;3.40;99.90;4.70;97036.00;;;;5094268;28;20229;-66
2022/12/02 03:34:03;;;;;;;10.20;7.93;;;3.40;99.90;4.60;97043.00;;;;5108707;28;20412;-66
2022/12/02 03:36:52;;;;;;;9.60;6.47;;;3.40;99.90;4.40;97043.00;;;;5108094;28;20194;-66
2022/12/02 03:39:41;;;;;;;10.37;6.70;;;3.40;99.90;4.30;97043.00;;;;5099166;28;20199;-66
2022/12/02 03:42:30;;;;;;;6.63;5.97;;;3.30;99.90;4.50;97042.00;;;;5089068;28;20207;-66
2022/12/02 03:45:19;;;;;;;9.60;6.20;;;3.30;99.90;4.50;97048.00;;;;5097913;28;20199;-66
2022/12/02 03:48:11;;;;;;;7.93;7.10;;;3.30;99.90;4.50;97045.00;;;;5094352;28;20199;-66
2022/12/02 03:50:59;;;;;;;10.67;7.57;;;3.30;99.90;4.50;97050.00;;;;5088814;28;20736;-65
2022/12/02 03:53:48;;;;;;;9.17;7.23;;;3.30;99.90;4.60;97031.00;;;;5102203;28;20689;-66
2022/12/02 03:56:39;;;;;;;10.87;8.13;;;3.30;99.90;4.60;97037.00;;;;5090190;28;20418;-66
2022/12/02 03:59:28;;;;;;;8.73;7.77;;;3.30;99.90;4.70;97036.00;;;;5104592;28;20214;-66
2022/12/02 04:02:17;;;;;;;10.40;8.67;;;3.30;99.90;4.70;97038.00;;;;5091838;28;20591;-66
2022/12/02 04:05:08;;;;;;;9.97;7.47;;;3.30;99.90;4.70;97034.00;;;;5089007;28;20226;-66
2022/12/02 04:07:57;;;;;;;9.07;7.77;;;3.30;99.90;4.70;97037.00;;;;5089124;28;20422;-66
2022/12/02 04:10:46;;;;;;;8.90;6.73;;;3.30;99.90;4.70;97037.00;;;;5094672;28;20728;-66
2022/12/02 04:13:35;;;;;;;9.63;8.00;;;3.30;99.90;4.60;97036.00;;;;5102567;28;20227;-66
2022/12/02 04:16:23;;;;;;;13.37;8.53;;;3.30;99.90;4.70;97042.00;;;;5095203;28;20433;-66
2022/12/02 04:19:14;;;;;;;8.70;7.50;;;3.30;99.90;4.70;97041.00;;;;5104750;28;20577;-66
2022/12/02 04:22:04;;;;;;;10.37;8.10;;;3.40;99.90;4.60;97038.00;;;;5089322;28;20469;-66
2022/12/02 04:24:52;;;;;;;13.73;7.63;;;3.30;99.90;4.60;97032.00;;;;5090452;28;20210;-66
2022/12/02 04:27:41;;;;;;;10.20;7.17;;;3.40;99.90;4.70;97038.00;;;;5112844;28;20808;-66
2022/12/02 04:30:30;;;;;;;13.13;8.10;;;3.30;99.90;4.60;97033.00;;;;5103116;28;20215;-66
2022/12/02 04:33:19;;;;;;;9.90;7.17;;;3.30;99.90;4.50;97042.00;;;;5110371;28;20834;-66
2022/12/02 04:36:08;;;;;;;10.47;7.60;;;3.30;99.90;4.60;97036.00;;;;5111286;28;20194;-66
2022/12/02 04:38:58;;;;;;;8.67;7.40;;;3.30;99.90;4.60;97040.00;;;;5101798;28;20199;-66
2022/12/02 04:41:47;;;;;;;8.00;5.90;;;3.30;99.90;4.50;97043.00;;;;5099682;28;20218;-67
2022/12/02 04:44:35;;;;;;;7.00;6.30;;;3.30;99.90;4.40;97041.00;;;;5111736;28;20213;-66
2022/12/02 04:47:24;;;;;;;11.53;7.37;;;3.30;99.90;4.40;97030.00;;;;5111436;28;20197;-66
2022/12/02 04:50:13;;;;;;;9.53;6.63;;;3.30;99.90;4.40;97036.00;;;;5112225;28;20230;-66
2022/12/02 04:53:02;;;;;;;10.37;7.43;;;3.30;99.90;4.50;97037.00;;;;5112459;28;20226;-66
2022/12/02 04:55:52;;;;;;;9.27;6.37;;;3.30;99.90;4.50;97029.00;;;;5111293;28;20211;-66
2022/12/02 04:58:40;;;;;;;10.20;8.13;;;3.30;99.90;4.50;97030.00;;;;5104786;28;20252;-67
2022/12/02 05:01:29;;;;;;;8.70;7.10;;;3.30;99.90;4.40;97039.00;;;;5104750;28;20713;-66
2022/12/02 05:04:18;;;;;;;10.17;7.87;;;3.30;99.90;4.50;97038.00;;;;5105584;28;20195;-66
2022/12/02 05:07:07;;;;;;;11.17;7.13;;;3.30;99.90;4.60;97028.00;;;;5095046;28;20705;-66
2022/12/02 05:09:55;;;;;;;9.10;6.90;;;1.90;99.90;4.60;97027.00;;;;5091314;28;20587;-66
2022/12/02 05:12:46;;;;;;;8.37;7.10;;;3.30;99.90;4.70;97027.00;;;;5107665;28;20222;-66
2022/12/02 05:15:34;;;;;;;11.00;7.83;;;3.30;99.90;4.60;97035.00;;;;5100130;28;20579;-67
2022/12/02 05:18:23;;;;;;;10.23;7.03;;;3.30;99.90;4.60;97020.00;;;;5098964;28;20207;-66
2022/12/02 05:21:12;;;;;;;10.47;8.37;;;3.30;99.90;4.50;97023.00;;;;5095465;28;20237;-67
2022/12/02 05:24:00;;;;;;;10.73;8.67;;;3.30;99.90;4.50;97024.00;;;;5101323;28;20215;-67
2022/12/02 05:26:49;;;;;;;12.70;7.90;;;3.30;99.90;4.50;97024.00;;;;5111340;28;20191;-66
2022/12/02 05:29:39;;;;;;;12.07;8.10;;;3.30;99.90;4.60;97020.00;;;;5108685;28;20239;-66
2022/12/02 05:32:28;;;;;;;11.47;7.33;;;3.30;99.90;4.50;97032.00;;;;5103252;28;20223;-66
2022/12/02 05:35:17;;;;;;;9.07;7.30;;;3.30;99.90;4.40;97030.00;;;;5099379;28;20242;-66
2022/12/02 05:38:05;;;;;;;10.30;8.43;;;3.30;99.90;4.50;97042.00;;;;5104218;28;20206;-66
2022/12/02 05:40:56;;;;;;;13.37;8.67;;;3.30;99.90;4.60;97034.00;;;;5106859;28;20222;-66
2022/12/02 05:43:45;;;;;;;10.80;9.07;;;3.30;99.90;4.60;97038.00;;;;5104328;28;20209;-67
2022/12/02 05:46:36;;;;;;;13.17;8.23;;;3.30;99.90;4.60;97031.00;;;;5096441;28;20191;-66
2022/12/02 05:49:25;;;;;;;14.10;9.60;;;3.30;99.90;4.50;97042.00;;;;5090058;28;20585;-66
2022/12/02 05:52:23;;;;;;;12.43;9.37;;;3.20;99.90;4.40;97033.00;;;;5102598;28;20199;-66
2022/12/02 05:55:16;;;;;;;14.37;10.57;;;3.20;99.90;4.50;97039.00;;;;5099582;28;20410;-66
2022/12/02 05:58:10;;;;;;;15.90;9.93;;;3.20;99.90;4.40;97040.00;;;;5101160;28;20202;-66
2022/12/02 06:01:00;;;;;;;15.20;10.00;;;3.20;99.90;4.40;97035.00;;;;5099690;28;20227;-66
2022/12/02 06:03:51;;;;;;;18.90;10.23;;;3.20;99.90;4.40;97040.00;;;;5090640;28;20204;-66
2022/12/02 06:06:39;;;;;;;16.97;9.80;;;3.10;99.90;4.40;97042.00;;;;5090978;28;20450;-66
2022/12/02 06:09:32;;;;;;;14.03;9.77;;;3.10;99.90;4.30;97035.00;;;;5090091;28;20204;-66
2022/12/02 06:12:21;;;;;;;15.33;9.57;;;3.10;99.90;4.30;97039.00;;;;5096830;28;20209;-66
2022/12/02 06:15:14;;;;;;;14.30;9.90;;;3.10;99.90;4.20;97042.00;;;;5105239;28;20199;-66
2022/12/02 06:18:03;;;;;;;17.83;9.63;;;3.00;99.90;4.20;97039.00;;;;5104945;28;20682;-66
2022/12/02 06:20:56;;;;;;;14.70;9.93;;;3.00;99.90;4.10;97036.00;;;;5104062;28;20228;-66
2022/12/02 06:23:47;;;;;;;17.03;9.93;;;3.00;99.90;4.10;97042.00;;;;5110126;28;20201;-66
2022/12/02 06:26:36;;;;;;;13.63;9.47;;;2.90;99.90;4.10;97047.00;;;;5107535;28;20425;-66
2022/12/02 06:29:27;;;;;;;12.57;9.03;;;2.80;99.90;4.00;97047.00;;;;5104515;28;20414;-66
2022/12/02 06:32:21;;;;;;;14.03;10.33;;;2.80;99.90;4.00;97054.00;;;;5100656;28;20950;-66
2022/12/02 06:35:22;;;;;;;12.63;8.53;;;2.80;99.90;4.00;97061.00;;;;5104696;28;20205;-66
2022/12/02 06:38:25;;;;;;;14.17;10.50;;;2.80;99.90;4.00;97060.00;;;;5104283;28;20202;-66
2022/12/02 06:41:19;;;;;;;14.10;8.57;;;2.80;99.90;4.00;97061.00;;;;5102332;28;20443;-66
2022/12/02 06:48:01;;;;;;;13.60;9.80;;;4.60;99.90;4.00;97064.00;;;;5102370;28;20245;-66
2022/12/02 06:50:50;;;;;;;18.23;9.47;;;2.70;99.90;4.00;97066.00;;;;5103754;28;20225;-66
2022/12/02 06:53:41;;;;;;;16.87;9.47;;;2.70;99.90;3.90;97072.00;;;;5101570;28;20988;-66
2022/12/02 06:56:32;;;;;;;14.57;9.80;;;2.70;99.90;3.90;97071.00;;;;5107527;28;20444;-66
2022/12/02 06:59:23;;;;;;;15.90;10.83;;;2.70;99.90;3.80;97069.00;;;;5107536;28;20425;-66
2022/12/02 07:02:24;;;;;;;13.83;10.40;;;2.60;99.90;3.80;97071.00;;;;5106184;28;20210;-66
2022/12/02 07:05:18;;;;;;;18.40;10.37;;;2.60;99.90;3.80;97065.00;;;;5107422;28;20210;-66
2022/12/02 07:08:08;;;;;;;15.43;10.13;;;2.70;99.90;3.80;97065.00;;;;5103906;28;20436;-66
2022/12/02 07:10:59;;;;;;;15.07;9.70;;;2.60;99.90;3.80;97068.00;;;;5105560;28;20801;-66
2022/12/02 07:13:48;;;;;;;13.47;9.40;;;2.50;99.90;3.80;97071.00;;;;5107374;28;20237;-66
2022/12/02 07:16:37;;;;;;;14.17;10.40;;;2.60;99.90;3.80;97070.00;;;;5107323;28;20588;-66
2022/12/02 07:19:35;;;;;;;14.67;8.97;;;2.60;99.90;3.80;97068.00;;;;5107960;28;20797;-67
2022/12/02 07:22:30;;;;;;;14.17;9.70;;;2.60;99.90;3.80;97063.00;;;;5104183;28;20432;-66
2022/12/02 07:25:36;;;;;;;17.30;10.20;;;2.60;99.90;3.80;97062.00;;;;5107452;28;20417;-67
2022/12/02 07:28:33;;;;;;;11.80;9.03;;;2.60;99.90;3.80;97069.00;;;;5104759;28;20959;-66
2022/12/02 07:31:25;;;;;;;11.23;9.37;;;2.60;99.90;3.80;97062.00;;;;5103770;28;20448;-66
2022/12/02 07:34:14;;;;;;;20.97;10.20;;;2.50;99.90;3.80;97073.00;;;;5101616;28;20467;-67
2022/12/02 07:37:03;;;;;;;12.57;9.27;;;2.50;99.90;3.70;97069.00;;;;5094469;28;20413;-67
2022/12/02 07:39:51;;;;;;;17.27;9.87;;;2.50;99.90;3.80;97072.00;;;;5094846;28;20433;-67
2022/12/02 07:42:40;;;;;;;14.87;10.40;;;2.50;99.90;3.80;97070.00;;;;5089074;28;20421;-67
2022/12/02 07:45:30;;;;;;;13.03;9.63;;;2.70;99.90;3.80;97073.00;;;;5090367;28;20421;-67
2022/12/02 07:48:19;;;;;;;13.43;10.33;;;2.50;99.90;3.80;97070.00;;;;5100875;28;20195;-67
2022/12/02 07:51:08;;;;;;;14.53;9.53;;;2.50;99.90;3.70;97068.00;;;;5104010;28;20314;-67
2022/12/02 07:53:56;;;;;;;14.33;10.30;;;2.60;99.90;3.60;97065.00;;;;5088927;28;20480;-67
2022/12/02 07:56:45;;;;;;;14.60;10.60;;;2.50;99.90;3.70;97059.00;;;;5105997;28;20198;-67
2022/12/02 07:59:34;;;;;;;11.20;8.70;;;2.50;99.90;3.70;97063.00;;;;5105056;28;20412;-67
2022/12/02 08:02:24;;;;;;;18.00;9.77;;;2.50;99.90;3.60;97053.00;;;;5104849;28;20433;-67
2022/12/02 08:05:13;;;;;;;14.73;10.27;;;2.50;99.90;3.70;97069.00;;;;5109673;28;20213;-67
2022/12/02 08:08:02;;;;;;;14.00;9.90;;;2.50;99.90;3.70;97066.00;;;;5112378;28;20666;-66
2022/12/02 08:10:50;;;;;;;10.33;8.13;;;2.40;99.90;3.80;97067.00;;;;5107938;28;20471;-66
2022/12/02 08:13:39;;;;;;;15.00;9.87;;;2.40;99.90;3.80;97063.00;;;;5113545;28;20229;-66
2022/12/02 08:16:28;;;;;;;12.87;9.53;;;2.40;99.90;3.90;97073.00;;;;5104161;28;20440;-66
2022/12/02 08:19:18;;;;;;;15.00;9.90;;;2.50;99.90;3.90;97067.00;;;;5110767;28;20477;-66
2022/12/02 08:22:07;;;;;;;11.00;8.37;;;2.60;99.90;4.00;97064.00;;;;5099475;28;20456;-67
2022/12/02 08:24:56;;;;;;;13.87;9.73;;;2.60;99.90;4.00;97060.00;;;;5108196;28;20202;-67
2022/12/02 08:27:44;;;;;;;10.83;8.20;;;2.60;99.90;4.00;97068.00;;;;5098340;28;20428;-66
2022/12/02 08:30:33;;;;;;;16.20;9.27;;;2.70;99.90;4.10;97064.00;;;;5107249;28;20215;-67
2022/12/02 08:33:22;;;;;;;12.10;9.57;;;2.70;99.90;4.20;97071.00;;;;5107508;28;20564;-66
2022/12/02 08:36:12;;;;;;;11.07;8.27;;;2.80;99.90;4.20;97062.00;;;;5104561;28;20436;-67
2022/12/02 08:39:04;;;;;;;14.43;9.73;;;2.80;99.90;4.20;97065.00;;;;5107068;28;20210;-66
2022/12/02 08:41:53;;;;;;;11.67;9.20;;;2.80;99.90;4.20;97068.00;;;;5098155;28;20448;-66
2022/12/02 08:44:41;;;;;;;10.07;8.53;;;2.90;99.90;4.30;97083.00;;;;5112533;28;20199;-66
2022/12/02 08:47:30;;;;;;;10.13;7.87;;;2.90;99.90;4.20;97075.00;;;;5093382;28;20191;-66
2022/12/02 08:50:19;;;;;;;14.53;9.70;;;2.90;99.90;4.30;97082.00;;;;5098096;28;20582;-66
2022/12/02 08:53:11;;;;;;;13.70;10.00;;;2.90;99.90;4.30;97081.00;;;;5096965;28;20222;-66
2022/12/02 08:56:00;;;;;;;14.70;9.77;;;2.90;99.90;4.30;97065.00;;;;5091172;28;20195;-66
2022/12/02 08:58:49;;;;;;;13.47;10.10;;;3.00;99.90;4.30;97069.00;;;;5104935;28;20191;-66
2022/12/02 09:01:38;;;;;;;10.23;8.80;;;2.90;99.90;4.30;97076.00;;;;5095336;28;20227;-66
2022/12/02 09:04:27;;;;;;;14.77;10.20;;;2.90;99.90;4.30;97072.00;;;;5109325;28;20648;-66
2022/12/02 09:07:17;;;;;;;13.03;9.73;;;3.00;99.90;4.40;97056.00;;;;5094932;28;20203;-66
2022/12/02 09:10:09;;;;;;;15.00;11.07;;;3.00;99.90;4.40;97066.00;;;;5104989;28;20206;-66
2022/12/02 09:12:58;;;;;;;14.87;10.60;;;3.10;99.90;4.50;97070.00;;;;5108729;28;20218;-66
2022/12/02 09:15:46;;;;;;;12.87;8.93;;;3.10;99.90;4.50;97069.00;;;;5096915;28;20227;-66
2022/12/02 09:18:35;;;;;;;15.53;11.07;;;3.10;99.90;4.70;97073.00;;;;5106919;28;20199;-66
2022/12/02 09:21:24;;;;;;;16.23;9.97;;;3.20;99.90;4.60;97070.00;;;;5109839;28;20983;-66
2022/12/02 09:24:13;;;;;;;13.33;10.47;;;3.20;99.90;4.60;97069.00;;;;5093252;28;20592;-66
2022/12/02 09:27:03;;;;;;;10.87;9.77;;;3.20;99.90;4.60;97066.00;;;;5100072;28;20868;-66
2022/12/02 09:29:52;;;;;;;12.30;9.17;;;3.20;99.90;4.40;97067.00;;;;5111149;28;20199;-66
2022/12/02 09:32:41;;;;;;;14.43;10.03;;;3.20;99.90;4.40;97073.00;;;;5095302;28;20202;-66
2022/12/02 09:35:29;;;;;;;13.73;8.30;;;3.30;99.90;4.10;97070.00;;;;5104687;28;20230;-67
2022/12/02 09:38:18;;;;;;;10.23;8.23;;;3.20;99.90;4.40;97064.00;;;;5092748;28;20686;-66
2022/12/02 09:41:07;;;;;;;9.47;7.47;;;3.10;99.90;4.40;97064.00;;;;5107859;28;20219;-66
2022/12/02 09:43:57;;;;;;;14.93;9.87;;;3.10;99.90;4.50;97069.00;;;;5106145;28;20202;-67
2022/12/02 09:46:47;;;;;;;13.77;8.70;;;3.10;99.90;4.40;97078.00;;;;5091023;28;20202;-66
2022/12/02 09:49:36;;;;;;;10.80;8.47;;;3.10;99.90;4.40;97070.00;;;;5103685;28;20569;-66
2022/12/02 09:52:26;;;;;;;10.17;8.30;;;3.10;99.90;4.30;97061.00;;;;5105216;28;20685;-66
2022/12/02 09:55:17;;;;;;;15.60;10.33;;;3.10;99.90;4.10;97063.00;;;;5110665;28;20222;-66
2022/12/02 09:58:14;;;;;;;11.17;8.57;;;3.10;99.90;4.00;97053.00;;;;5110227;28;20197;-66
2022/12/02 10:01:09;;;;;;;11.00;8.53;;;3.00;99.90;3.70;97067.00;;;;5103066;28;20221;-66
2022/12/02 10:03:58;;;;;;;10.97;9.47;;;2.90;99.90;4.00;97057.00;;;;5101381;28;20198;-66
2022/12/02 10:06:47;;;;;;;11.23;7.77;;;2.90;99.90;4.00;97057.00;;;;5089407;28;20901;-66
2022/12/02 10:09:36;;;;;;;11.13;8.37;;;2.90;99.90;4.00;97053.00;;;;5089189;28;20882;-66
2022/12/02 10:12:25;;;;;;;12.10;8.47;;;2.80;99.90;4.20;97057.00;;;;5097335;28;20420;-66
2022/12/02 10:15:17;;;;;;;12.40;8.57;;;2.80;99.90;3.80;97057.00;;;;5109236;28;20230;-66
2022/12/02 10:18:13;;;;;;;11.37;9.20;;;2.80;99.90;4.20;97047.00;;;;5109682;28;20209;-66
2022/12/02 10:21:01;;;;;;;12.00;9.03;;;2.90;99.90;4.00;97054.00;;;;5110046;28;20479;-67
2022/12/02 10:23:56;;;;;;;13.93;11.17;;;2.90;99.90;3.80;97056.00;;;;5110774;28;20195;-66
2022/12/02 10:26:47;;;;;;;16.00;10.20;;;2.80;99.90;4.00;97046.00;;;;5110123;28;20206;-66
2022/12/02 10:29:36;;;;;;;18.07;11.33;;;2.80;99.90;4.30;97043.00;;;;5104116;28;20412;-66
2022/12/02 10:32:27;;;;;;;17.53;12.00;;;2.80;99.90;4.30;97045.00;;;;5101100;28;20433;-66
2022/12/02 10:35:17;;;;;;;13.23;9.63;;;2.90;99.90;4.30;97049.00;;;;5108588;28;20967;-66
2022/12/02 10:38:37;;;;;;;16.03;10.00;;;2.90;99.90;3.70;97043.00;;;;5092766;28;20427;-65
2022/12/02 10:41:27;;;;;;;17.07;10.93;;;2.80;99.90;4.30;97044.00;;;;5092335;28;20434;-66
2022/12/02 10:44:19;;;;;;;13.67;11.37;;;2.90;99.90;4.30;97035.00;;;;5108543;28;20195;-66
2022/12/02 10:47:17;;;;;;;14.70;11.50;;;2.90;99.90;4.00;97030.00;;;;5089394;28;20971;-66
2022/12/02 10:50:22;;;;;;;16.07;11.53;;;3.10;99.90;3.80;97025.00;;;;5106902;28;20542;-65
2022/12/02 10:53:16;;;;;;;20.50;13.30;;;2.90;99.90;3.80;97030.00;;;;5106561;28;20420;-65
2022/12/02 10:56:06;;;;;;;19.27;12.80;;;2.80;99.90;4.20;97041.00;;;;5106305;28;20230;-65
2022/12/02 10:58:55;;;;;;;15.50;11.53;;;2.90;99.90;4.20;97033.00;;;;5107766;28;20417;-65
2022/12/02 11:01:45;;;;;;;19.03;13.03;;;2.90;99.90;3.80;97032.00;;;;5106796;28;20218;-66
2022/12/02 11:04:34;;;;;;;17.87;11.70;;;2.80;99.90;3.90;97033.00;;;;5108283;28;20409;-66
2022/12/02 11:07:25;;;;;;;22.70;13.60;;;2.80;99.90;4.10;97025.00;;;;5107494;28;20420;-65
2022/12/02 11:10:20;;;;;;;22.37;15.83;;;2.80;99.90;3.90;97029.00;;;;5104178;28;20432;-66
2022/12/02 11:13:53;;;;;;;17.63;12.90;;;2.80;99.90;4.10;97026.00;;;;5107163;28;20432;-66
2022/12/02 11:17:01;;;;;;;21.83;14.97;;;2.80;99.90;4.40;97029.00;;;;5074119;28;20472;-66
2022/12/02 11:19:50;;;;;;;25.47;15.50;;;2.90;99.90;4.40;97018.00;;;;5108992;28;20805;-65
2022/12/02 11:23:20;;;;;;;21.17;14.47;;;3.00;99.90;4.60;97031.00;;;;5104696;28;20421;-65
2022/12/02 11:26:10;;;;;;;16.50;13.47;;;3.10;99.90;4.50;97029.00;;;;5006857;28;20440;-66
2022/12/02 11:29:16;;;;;;;22.17;14.83;;;3.10;99.90;4.40;97024.00;;;;5006300;28;20433;-65
2022/12/02 11:32:20;;;;;;;20.97;14.43;;;3.20;99.90;4.30;97020.00;;;;5107013;28;20448;-66
2022/12/02 11:35:15;;;;;;;24.73;15.57;;;3.10;99.90;4.50;97020.00;;;;5102271;28;20473;-65
2022/12/02 11:38:27;;;;;;;27.37;16.60;;;3.10;99.90;4.50;97022.00;;;;5099839;28;20198;-66
2022/12/02 11:41:17;;;;;;;24.27;16.40;;;3.10;99.90;4.30;97017.00;;;;5091756;28;20682;-66
2022/12/02 11:44:21;;;;;;;25.60;15.27;;;3.10;99.90;4.40;97020.00;;;;5088921;28;20211;-65
2022/12/02 11:47:31;;;;;;;24.90;16.47;;;3.10;99.90;4.50;97012.00;;;;5100332;28;20417;-65
2022/12/02 11:50:25;;;;;;;26.40;15.60;;;3.10;99.90;4.40;97019.00;;;;5108623;28;20971;-66
2022/12/02 11:53:17;;;;;;;24.07;15.13;;;3.10;99.90;4.50;97005.00;;;;5096866;28;20424;-66
2022/12/02 11:56:12;;;;;;;26.30;16.60;;;3.20;99.90;4.60;97012.00;;;;5108575;28;20678;-66
2022/12/02 11:59:01;;;;;;;30.67;16.23;;;3.20;99.90;4.60;97005.00;;;;5107670;28;20221;-66
2022/12/02 12:01:50;;;;;;;27.10;17.67;;;3.30;99.90;3.90;97002.00;;;;5100628;28;20222;-65
2022/12/02 12:04:39;;;;;;;28.73;16.63;;;3.10;99.90;4.20;97006.00;;;;5104545;28;20210;-65
2022/12/02 12:07:45;;;;;;;25.57;15.53;;;3.00;99.90;4.30;97007.00;;;;5106186;28;20203;-65
2022/12/02 12:10:36;;;;;;;24.00;15.53;;;3.10;99.90;4.00;96999.00;;;;5104374;28;20633;-66
2022/12/02 12:13:26;;;;;;;24.67;15.47;;;3.10;99.90;4.40;97003.00;;;;5106297;28;20191;-66
2022/12/02 12:16:23;;;;;;;22.40;14.90;;;3.10;99.90;4.30;97004.00;;;;5106165;28;20260;-67
2022/12/02 12:19:27;;;;;;;24.13;16.47;;;3.10;99.90;4.60;96990.00;;;;5106839;28;20210;-67
2022/12/02 12:22:27;;;;;;;26.13;15.90;;;3.10;99.90;4.30;97009.00;;;;5106293;28;20862;-67
2022/12/02 12:25:41;;;;;;;26.73;16.73;;;3.10;99.90;3.90;97002.00;;;;5105310;28;20207;-67
2022/12/02 12:28:34;;;;;;;23.70;15.90;;;3.10;99.90;4.40;97006.00;;;;5102721;28;20413;-67
2022/12/02 12:31:22;;;;;;;26.53;17.10;;;3.10;99.90;4.40;96998.00;;;;5104206;28;20447;-67
2022/12/02 12:34:11;;;;;;;23.77;15.60;;;3.10;99.90;4.40;97003.00;;;;5106226;28;20412;-66
2022/12/02 12:37:00;;;;;;;28.13;16.83;;;3.10;99.90;4.30;96997.00;;;;5104450;28;20460;-67
2022/12/02 12:39:49;;;;;;;23.70;16.03;;;3.10;99.90;4.20;97003.00;;;;5101311;28;20440;-67
2022/12/02 12:42:38;;;;;;;27.87;18.20;;;3.10;99.90;4.20;97001.00;;;;5108219;28;20424;-67
2022/12/02 12:45:28;;;;;;;26.23;16.83;;;3.00;99.90;4.40;96986.00;;;;5104643;28;20409;-67
2022/12/02 12:48:17;;;;;;;29.77;16.63;;;3.00;99.90;4.40;96991.00;;;;5110530;28;20947;-67
2022/12/02 12:51:06;;;;;;;22.00;15.50;;;3.00;99.90;4.50;96989.00;;;;5106721;28;20649;-67
2022/12/02 12:53:54;;;;;;;26.00;17.53;;;3.10;99.90;4.60;96986.00;;;;5109802;28;20448;-67
2022/12/02 12:56:43;;;;;;;26.63;16.70;;;3.20;99.90;4.30;97004.00;;;;5107087;28;20843;-67